Location:  
MeteoStar


Sort by weather type Sort by elevation Sort by visibility Sort from west to east north Sort from north to south Alphabetically Sort from strongest wind speed Sort from lowest to highest pressure Sort from highest to lowest dew point temperature Sort coolest temperatures to warmest Sort warm temperatures to coolest
 Metric

Current Observations for United Kingdom sorted from warmest to coolest

Prestwick Airport21:50ZLight Showers52 464996.1SSW 23 Gusting to 41 4665
London City Airport21:50ZMostly Cloudy52 41111019.1WSW 20 Gusting to 30 4616
Liverpool Airport 21:50ZLight Showers52 45121009.1SSW 19 Gusting to 29 4685
Belfast / Harbour21:50ZLight Rain52 482.5999.1SW 24 4616
Castlederg22:00ZClear51 4630998SW 23 Gusting to 36 44167
Carlisle22:00ZNot Avail.51 47201000.5N 5191
Hawarden22:00ZLight Showers51 45201009.2WSW 22 Gusting to 40 4532
Scilly; Saint MaryS22:00ZNot Avail.51 4571021.9SW 28 Gusting to 44 44101
Glenanne22:00ZLight Drizzle50 482.251000.2WSW 19 Gusting to 33 44528
Portglenone22:00ZRain50 484997.5SSW 14 Gusting to 29 45209
Pershore22:00ZNot Avail.50 43111015.7SW 22 Gusting to 36 43104
Donna Nook22:00ZNot Avail.50 42191010.5SSW 20 Gusting to 31 4426
Bridlington Mrsc22:00ZNot Avail.50 44181006.5SW 21 Gusting to 34 4349
Keswick22:00ZLight Rain50 4671003.4SW 18 Gusting to 38 44265
Prestwick Rnas22:00ZClear50 4712996.2SW 30 Gusting to 43 4285
Waddington21:50ZMostly Cloudy50 41131011.2SW 20 Gusting to 31 44223
Leconfield21:50ZPartly Cloudy50 45131007.1SW 23 4319
Linton-On-Ouse21:50ZLight Rain50 45131007.1SW 14 4552
Wittering21:50ZCloudy50 41101012.2SW 27 Gusting to 38 42275
Coningsby Royal Air Force Base21:50ZCloudy50 43201012.1SW 25 4322
Northolt21:50ZMostly Cloudy50 41131019.2WSW 20 Gusting to 32 44124
Norwich Weather Centre21:50ZCloudy50 4141015.1SW 21 Gusting to 33 4345
Boulmer21:50ZMostly Cloudy50 4625999.1SSW 19 4475
Machrihanish22:00ZNot Avail.50 492.5996.2SW 21 Gusting to 28 4342
Edinburgh Airport21:50ZLight Rain50 484994.1SW 23 43134
Pembrey Sands21:50ZCloudy50 4541017.1SSW 34 Gusting to 45 429
Humberside21:50ZLight Rain50 45121010.1SW 25 Gusting to 36 43101
Lydd Airport 21:50ZCloudy50 43121022.1WSW 23 439
London / Heathrow Airport21:50ZMostly Cloudy50 41121020.1WSW 22 4378
London / Gatwick Airport21:50ZMostly Cloudy50 41111020.2SW 20 Gusting to 31 44203
Southampton / Weather Centre21:50ZMostly Cloudy50 43101022.1SW 17 4429
Bournemouth Airport22:00ZNot Avail.50 43101022.2WSW 16 Gusting to 29 4436
Yeovilton21:50ZCloudy50 41121020.1SW 12 Gusting to 23 4575
Culdrose21:50ZMostly Cloudy50 4581022.2SW 28 Gusting to 39 42255
Chivenor22:00ZNot Avail.50 4371020.0WSW 24 Gusting to 39 4326
Belfast / Aldergrove Airport22:00ZNot Avail.50 488998.9SW 20 Gusting to 31 44265
Ballypatrick Forest22:00ZLight Drizzle49 474996.7W 21 Gusting to 33 42511
Herstmonceux22:00ZNot Avail.49 4291022.5WSW 15 Gusting to 27 43170
Saint Catherines Point22:00ZNot Avail.49 4461023WSW 30 Gusting to 37 4152
Isle Of Portland22:00ZHaze49 4561022.7WSW 25 Gusting to 41 41173
Camborne22:00ZCloudy49 4471022.0SW 20 Gusting to 36 42285
Shoeburyness22:00ZNot Avail.49 41121018.7WSW 19 Gusting to 34 426
Milford Haven22:00ZNot Avail.49 4561016.0SW 19 Gusting to 36 42144
Shobdon22:00ZNot Avail.49 43201015.0SW 15 Gusting to 31 43324
Weybourne22:00ZNot Avail.49 41151013.2SW 23 Gusting to 39 4268
Nottingham Weather Centre22:00ZNot Avail.49 42181011.7SW 20 Gusting to 42 42383
Crosby22:00ZLight Rain49 4541008.2WSW 34 Gusting to 44 4026
Rhyl22:00ZNot Avail.49 462.251009.0SW 20 Gusting to 37 42252
Wainfleet22:00ZNot Avail.49 43191012SW 30 Gusting to 39 419
Holbeach22:00ZNot Avail.49 43131013.4WSW 31 Gusting to 48 419
Lakenheath Royal Air Force Base21:56ZCloudy49 4021015.2SW 23 Gusting to 31 4232
West Freugh22:00ZNot Avail.49 478999.2SSW 28 Gusting to 37 4136
Shoreham Airport22:00ZNot Avail.49 44111022.0SW 25 Gusting to 35 416
Plymouth22:00ZNot Avail.49 4481022.9SW 23 Gusting to 35 42164
Lough Fea22:00ZRain48 476999.0SW 12 Gusting to 28 43738
Thorney Island22:00ZNot Avail.48 4381022.0WSW 22 Gusting to 30 4113
Mumbles22:00ZNot Avail.48 4461018.2SW 32 Gusting to 39 39114
Bedford22:00ZNot Avail.48 41131015.7SW 22 Gusting to 36 41278
Church Lawford22:00ZNot Avail.48 4291015.0SW 16 Gusting to 31 42351
Trawscoed22:00ZLight Showers48 462.51014.5S 11 43206
Redesdale22:00ZNot Avail.48 467999.5SW 23 Gusting to 41 40692
Charterhall22:00ZNot Avail.48 457996.9SW 29 Gusting to 41 39367
Dundrennan22:00ZNot Avail.48 468999.9SW 34 Gusting to 49 39374
Strathallan22:00ZRain48 465993.7SW 11 Gusting to 25 43114
Aboyne22:00ZClear48 3930990.7SW 16 Gusting to 26 42459
Marham21:50ZCloudy48 41101015.1SW 19 4175
Cranwell21:50ZMostly Cloudy48 43141012.2SW 28 Gusting to 38 40219
Topcliffe Royal Air Force Base 21:50ZLight Rain48 46131006.1SW 16 4291
Leeming21:50ZLight Rain48 4561005.2SW 24 Gusting to 35 40131
Middle Wallop21:50ZMostly Cloudy48 41121020.2SW 17 Gusting to 29 42298
Odiham21:50ZMostly Cloudy48 41111019.3SW 29 Gusting to 41 39403
Brize Norton21:50ZMostly Cloudy48 41201018.2SW 12 Gusting to 24 43288
Fairford Royal Air Force Base21:56ZCloudy48 40101018.0SW 17 Gusting to 26 42285
Wattisham21:50ZCloudy48 41101016.2WSW 21 41285
Mildenhall Royal Air Force Base21:55ZCloudy48 3991015.5SW 19 Gusting to 28 4132
Manston22:00ZNot Avail.48 4091020SW 25 Gusting to 38 40180
Benson21:50ZCloudy48 41131019.2SSW 17 42206
Exeter Airport21:50ZMostly Cloudy48 4141021.2SW 21 Gusting to 31 4198
Stansted Airport21:50ZMostly Cloudy48 3941017.2WSW 23 40347
Leuchars21:50ZLight Rain48 466993.1WSW 17 4239
Glasgow Airport21:50ZRain48 462.5995.1SW 23 Gusting to 33 4026
Aberdeen / Dyce21:50ZClear48 4330991.2SSW 11 43213
Valley21:50ZRain48 462.251008.1SSW 34 393
Shawbury21:50ZLight Rain48 45201012.2SW 16 42249
Spadeadam21:50ZMostly Cloudy48 4651000.4SW 28 Gusting to 41 401066
East Midlands21:50ZMostly Cloudy48 4151012.2SW 22 41308
Tees-Side21:50ZLight Rain48 4551005.2SSW 18 41121
Newcastle 21:50ZLight Rain48 4651001.2SW 16 42265
Isle Of Man / Ronaldsway Airport21:50ZLight Rain48 4851003.1SSW 31 3955
Southend-On-Sea 21:50ZCloudy48 41121019.1SW 25 4049
Farnborough21:50ZCloudy48 41121020.2SW 22 Gusting to 39 41213
Bristol / Lulsgate 21:50ZCloudy48 41121019.3SW 14 42620
Cardiff-Wales Airport21:50ZCloudy48 43121018.2WSW 18 Gusting to 29 41219
Boscombe Down21:50ZMostly Cloudy48 4191020.3SW 21 41406
Manchester Airport21:50ZLight Rain48 4551010.2SSW 13 43226
Birmingham / Airport21:50ZCloudy48 432.51014.2SW 13 43324
Cardinham22:00ZNot Avail.47 4371021.9SW 19 Gusting to 29 40656
Langdon Bay22:00ZNot Avail.47 42121020.7SW 26 Gusting to 42 39383
Kenley22:00ZNot Avail.47 41121020.0SW 20 Gusting to 34 40557
Larkhill22:00ZNot Avail.47 41131020.2SW 11 Gusting to 23 42433
High Wicombe Hqstc22:00ZNot Avail.47 4091018.2WSW 15 Gusting to 32 41669
Aberdaron22:00ZNot Avail.47 4731010.9SW 42 Gusting to 53 36311
Loftus Samos22:00ZClear47 44181003.7SW 31 Gusting to 47 38190
Spadeadam22:00ZClear47 46251000.5SW 28 Gusting to 46 38935
Drumalbin22:00ZNot Avail.47 462996SW 23 Gusting to 38 39803
Tulloch Bridge22:00ZNot Avail.47 3715991SW 17 Gusting to 35 40777
Aberporth22:00ZClear47 4621014.4SW 26 Gusting to 44 39436
Walney Island22:00ZLight Drizzle47 4641005.0SSW 27 Gusting to 41 3849
Blackpool Airport22:00ZNot Avail.47 4612WSW 27 Gusting to 45 3832
Lyneham22:00ZNot Avail.47 4071019SW 14 Gusting to 29 41475
Dunkeswell Aerodrome22:00ZNot Avail.46 4171021.2WSW 18 Gusting to 30 39826
Little Rissington22:00ZNot Avail.46 41121017.0SW 21 Gusting to 33 38705
Bingley22:00ZRain46 441.621007.9SW 22 Gusting to 34 38859
Capel Curig22:00ZLight Rain and Snow46 451.751010.7SW 31 Gusting to 45 36708
Fylingdales22:00ZNot Avail.46 4418SW 27 Gusting to 46 37859
Warcop Range22:00ZLight Drizzle46 4551003.7SW 26 Gusting to 40 37744
Shap22:00ZNot Avail.46 451.121004.0SW 30 Gusting to 47 37816
Saint Bees Head22:00ZNot Avail.46 4521002.9SSW 28 Gusting to 41 37406
Eskdalemuir22:00ZRain46 452.75999.2SSW 21 Gusting to 34 38793
Inverbervie22:00ZClear46 4525992.2SW 20 Gusting to 27 38439
Lossiemouth21:50ZRain46 394988.1W 8 4242
Leeds And Bradford21:50ZLight Rain46 4561007.3SW 19 39682
Biggin Hill 21:50ZMostly Cloudy46 39111019.4SW 23 Gusting to 39 38600
Jersey Airport21:50ZClear46 41111026.2SW 14 40275
Guernsey Airport21:50ZPartly Cloudy46 43151026.2SW 20 38334
Luton Airport 21:50ZCloudy46 41121017.3SW 17 Gusting to 28 39524
Liscombe22:00ZNot Avail.45 40101019.9SW 21 Gusting to 39 371141
Lake Vyrnwy22:00ZNot Avail.45 440.751011.9SW 29 Gusting to 46 351181
Kinloss21:50ZRain45 412.25988.1W 13 3922
Inverness / Dalcross21:50ZLight Rain45 434988.1WSW 8 4129
Sennybridge22:00ZLight Rain44 441.751015.7SW 28 Gusting to 42 341007
Aviemore22:00ZClear44 3915989SSW 7 Gusting to 23 40721
South Uist Range22:00ZClear44 394988WSW 23 Gusting to 32 3532
Tain Range22:00ZRain44 413988SW 15 Gusting to 27 3713
Tiree21:50ZMostly Cloudy43 434991.1WSW 22 3439
Wick21:50ZLight Rain43 394987.2WSW 10 37127
Sumburgh Cape 21:50ZClear43 374984.1WSW 34 3216
Lerwick22:00ZLight Showers42 368982.0SW 40 Gusting to 48 30269
Glen Ogle22:00ZNot Avail.41 375WSW 34 Gusting to 61 291850
Aultbea22:00ZLight Rain41 387988.0W 14 Gusting to 31 3336
Loch Glascanoch22:00ZRain41 363987.7W 24 Gusting to 51 31869
Baltasound22:00ZClear41 377981WSW 16 Gusting to 37 3349
Stornoway21:50ZLight Rain41 3730985.1SW 12 3429
Scatsa / Shetland Island21:50ZRain41 371.87981.1SW 29 3072
Great Dun Fell22:00ZNot Avail.39 395WSW 55 Gusting to 66 242778
Fair Isle22:00ZLight Rain39 373985.7WSW 26 Gusting to 42 28187
Altnaharra22:00ZRain38 357987.7WSW 11 Gusting to 28 31265
Cairnwell22:00ZNot Avail.36 N/A15WSW 47 Gusting to 71 3061
Kirkwall Airport21:50ZLight Rain36 345987.1W 13 2768
Cairngorm22:00ZNot Avail.33 3315WSW 77 Gusting to 99 134084